Terminal Aerodrome Forecast
Issued by NWS

Home | Current Version | Previous Version | Text Only | Print | Product List | Glossary On
Versions: 1 2 3 4 5 6 7 8 9 10 11 12 13 14 15 16 17
000
FTUS41 KBTV 242206 AAF
TAFMPV
TAF AMD
KMPV 242206Z 2422/2518 VRB03KT 1/2SM FG SCT006 SCT015 OVC060
      TEMPO 2422/2502 1/4SM FG BKN006 OVC015
     FM250200 VRB03KT 1/4SM FG VV003
     FM251300 17015G25KT P6SM BKN028=

USA.gov is the U.S. government's official web portal to all federal, state and local government web resources and services.